createdAt,value
2017-04-28T00:00:03.311Z,998.77
2017-04-28T00:01:03.345Z,998.72
2017-04-28T00:02:03.377Z,998.79
2017-04-28T00:03:03.410Z,998.76
2017-04-28T00:04:03.445Z,998.76
2017-04-28T00:05:03.478Z,998.74
2017-04-28T00:06:03.512Z,998.76
2017-04-28T00:07:03.546Z,998.74
2017-04-28T00:08:03.579Z,998.69
2017-04-28T00:09:03.614Z,998.77
2017-04-28T00:10:03.648Z,998.71
2017-04-28T00:11:03.682Z,998.74
2017-04-28T00:12:03.714Z,998.73
2017-04-28T00:13:03.748Z,998.66
2017-04-28T00:14:03.785Z,998.66
2017-04-28T00:15:03.818Z,998.66
2017-04-28T00:16:03.851Z,998.73
2017-04-28T00:17:03.883Z,998.7
2017-04-28T00:18:03.920Z,998.7
2017-04-28T00:19:03.953Z,998.72
2017-04-28T00:20:03.985Z,998.69
2017-04-28T00:21:04.020Z,998.67
2017-04-28T00:22:04.056Z,998.68
2017-04-28T00:23:04.086Z,998.65
2017-04-28T00:24:04.119Z,998.7
2017-04-28T00:25:04.154Z,998.69
2017-04-28T00:26:04.187Z,998.72
2017-04-28T00:27:04.221Z,998.67
2017-04-28T00:28:04.255Z,998.65
2017-04-28T00:29:04.291Z,998.64
2017-04-28T00:30:04.322Z,998.64
2017-04-28T00:31:04.356Z,998.67
2017-04-28T00:32:04.393Z,998.7
2017-04-28T00:33:04.424Z,998.68
2017-04-28T00:34:04.457Z,998.68
2017-04-28T00:35:04.489Z,998.69
2017-04-28T00:36:04.524Z,998.65
2017-04-28T00:37:04.559Z,998.64
2017-04-28T00:38:04.589Z,998.6
2017-04-28T00:39:04.640Z,998.58
2017-04-28T00:40:04.658Z,998.53
2017-04-28T00:41:04.692Z,998.54
2017-04-28T00:42:04.725Z,998.5
2017-04-28T00:43:04.759Z,998.46
2017-04-28T00:44:04.793Z,998.46
2017-04-28T00:45:04.826Z,998.46
2017-04-28T00:46:04.861Z,998.43
2017-04-28T00:47:04.894Z,998.42
2017-04-28T00:48:04.927Z,998.43
2017-04-28T00:49:04.962Z,998.42
2017-04-28T00:50:04.999Z,998.47
2017-04-28T00:51:05.031Z,998.48
2017-04-28T00:52:05.065Z,998.48
2017-04-28T00:53:05.097Z,998.48
2017-04-28T00:54:05.130Z,998.48
2017-04-28T00:55:05.164Z,998.49
2017-04-28T00:56:05.197Z,998.48
2017-04-28T00:57:05.231Z,998.53
2017-04-28T00:58:05.265Z,998.59
2017-04-28T00:59:05.299Z,998.54
2017-04-28T01:00:05.330Z,998.57
2017-04-28T01:01:05.366Z,998.59
2017-04-28T01:02:05.399Z,998.6
2017-04-28T01:03:05.432Z,998.57
2017-04-28T01:04:05.464Z,998.62
2017-04-28T01:05:05.500Z,998.59
2017-04-28T01:06:05.534Z,998.63
2017-04-28T01:07:05.566Z,998.58
2017-04-28T01:08:05.599Z,998.59
2017-04-28T01:09:05.634Z,998.57
2017-04-28T01:10:05.667Z,998.62
2017-04-28T01:11:05.704Z,998.62
2017-04-28T01:12:05.734Z,998.59
2017-04-28T01:13:05.768Z,998.62
2017-04-28T01:14:05.801Z,998.6
2017-04-28T01:15:05.835Z,998.6
2017-04-28T01:16:05.868Z,998.56
2017-04-28T01:17:05.909Z,998.55
2017-04-28T01:18:05.936Z,998.46
2017-04-28T01:19:05.970Z,998.47
2017-04-28T01:20:06.002Z,998.49
2017-04-28T01:21:06.036Z,998.47
2017-04-28T01:22:06.069Z,998.46
2017-04-28T01:23:06.103Z,998.42
2017-04-28T01:24:06.139Z,998.4
2017-04-28T01:25:06.169Z,998.37
2017-04-28T01:26:06.204Z,998.3
2017-04-28T01:27:06.237Z,998.27
2017-04-28T01:28:06.275Z,998.28
2017-04-28T01:29:06.303Z,998.28
2017-04-28T01:30:06.337Z,998.3
2017-04-28T01:31:06.372Z,998.31
2017-04-28T01:32:06.405Z,998.28
2017-04-28T01:33:06.438Z,998.31
2017-04-28T01:34:06.474Z,998.27
2017-04-28T01:35:06.506Z,998.21
2017-04-28T01:36:06.538Z,998.15
2017-04-28T01:37:06.572Z,998.15
2017-04-28T01:38:06.605Z,998.13
2017-04-28T01:39:06.639Z,998.07
2017-04-28T01:40:06.673Z,998.14
2017-04-28T01:41:06.708Z,998.2
2017-04-28T01:42:06.740Z,998.21
2017-04-28T01:43:06.773Z,998.22
2017-04-28T01:44:06.807Z,998.22
2017-04-28T01:45:06.842Z,998.2
2017-04-28T01:46:06.876Z,998.16
2017-04-28T01:47:06.906Z,998.14
2017-04-28T01:48:06.942Z,998.05
2017-04-28T01:49:06.974Z,998.05
2017-04-28T01:50:07.009Z,998.08
2017-04-28T01:51:07.041Z,998.08
2017-04-28T01:52:07.074Z,998.09
2017-04-28T01:53:07.107Z,998.06
2017-04-28T01:54:07.141Z,998.08
2017-04-28T01:55:07.177Z,998.05
2017-04-28T01:56:07.208Z,998.03
2017-04-28T01:57:07.241Z,998.05
2017-04-28T01:58:07.275Z,998.11
2017-04-28T01:59:07.309Z,998.1
2017-04-28T02:00:07.342Z,998.09
2017-04-28T02:01:07.375Z,998.07
2017-04-28T02:02:07.409Z,998.03
2017-04-28T02:03:07.442Z,998.05
2017-04-28T02:04:07.476Z,998.05
2017-04-28T02:05:07.508Z,998.03
2017-04-28T02:06:07.542Z,998.02
2017-04-28T02:07:07.575Z,997.93
2017-04-28T02:08:07.609Z,997.91
2017-04-28T02:09:07.642Z,997.87
2017-04-28T02:10:07.674Z,997.79
2017-04-28T02:11:07.709Z,997.76
2017-04-28T02:12:07.742Z,997.74
2017-04-28T02:13:07.776Z,997.73
2017-04-28T02:14:07.808Z,997.68
2017-04-28T02:15:07.842Z,997.69
2017-04-28T02:16:07.875Z,997.68
2017-04-28T02:17:07.909Z,997.64
2017-04-28T02:18:07.942Z,997.64
2017-04-28T02:19:07.975Z,997.63
2017-04-28T02:20:08.009Z,997.7
2017-04-28T02:21:08.042Z,997.71
2017-04-28T02:22:08.075Z,997.76
2017-04-28T02:23:08.110Z,997.76
2017-04-28T02:24:08.140Z,997.78
2017-04-28T02:25:08.177Z,997.76
2017-04-28T02:26:08.209Z,997.78
2017-04-28T02:27:08.241Z,997.77
2017-04-28T02:28:08.280Z,997.76
2017-04-28T02:29:08.309Z,997.79
2017-04-28T02:30:08.342Z,997.8
2017-04-28T02:31:08.374Z,997.79
2017-04-28T02:32:08.407Z,997.78
2017-04-28T02:33:08.441Z,997.83
2017-04-28T02:34:08.475Z,997.84
2017-04-28T02:35:08.509Z,997.83
2017-04-28T02:36:08.543Z,997.84
2017-04-28T02:37:08.574Z,997.85
2017-04-28T02:38:08.609Z,997.88
2017-04-28T02:39:08.641Z,997.83
2017-04-28T02:40:08.674Z,997.82
2017-04-28T02:41:08.707Z,997.78
2017-04-28T02:42:08.740Z,997.77
2017-04-28T02:43:08.774Z,997.7
2017-04-28T02:44:08.805Z,997.64
2017-04-28T02:45:08.841Z,997.63
2017-04-28T02:46:08.872Z,997.63
2017-04-28T02:47:08.904Z,997.64
2017-04-28T02:48:08.939Z,997.64
2017-04-28T02:49:08.971Z,997.65
2017-04-28T02:50:09.002Z,997.66
2017-04-28T02:51:09.038Z,997.63
2017-04-28T02:52:09.071Z,997.67
2017-04-28T02:53:09.102Z,997.67
2017-04-28T02:54:09.137Z,997.71
2017-04-28T02:55:09.171Z,997.71
2017-04-28T02:56:09.203Z,997.71
2017-04-28T02:57:09.238Z,997.75
2017-04-28T02:58:09.267Z,997.72
2017-04-28T02:59:09.302Z,997.74
2017-04-28T03:00:09.333Z,997.77
2017-04-28T03:01:09.367Z,997.75
2017-04-28T03:02:09.400Z,997.78
2017-04-28T03:03:09.434Z,997.8
2017-04-28T03:04:09.466Z,997.83
2017-04-28T03:05:09.499Z,997.81
2017-04-28T03:06:09.532Z,997.81
2017-04-28T03:07:09.565Z,997.83
2017-04-28T03:08:09.598Z,997.83
2017-04-28T03:09:09.629Z,997.75
2017-04-28T03:10:09.664Z,997.71
2017-04-28T03:11:09.696Z,997.66
2017-04-28T03:12:09.730Z,997.69
2017-04-28T03:13:09.762Z,997.66
2017-04-28T03:14:09.795Z,997.66
2017-04-28T03:15:09.828Z,997.67
2017-04-28T03:16:09.859Z,997.69
2017-04-28T03:17:09.893Z,997.7
2017-04-28T03:18:09.926Z,997.67
2017-04-28T03:19:09.961Z,997.68
2017-04-28T03:20:09.992Z,997.65
2017-04-28T03:21:10.026Z,997.6
2017-04-28T03:22:10.057Z,997.57
2017-04-28T03:23:10.094Z,997.55
2017-04-28T03:24:10.124Z,997.49
2017-04-28T03:25:10.157Z,997.51
2017-04-28T03:26:10.189Z,997.52
2017-04-28T03:27:10.222Z,997.49
2017-04-28T03:28:10.254Z,997.51
2017-04-28T03:29:10.287Z,997.48
2017-04-28T03:30:10.318Z,997.45
2017-04-28T03:31:10.354Z,997.47
2017-04-28T03:32:10.386Z,997.46
2017-04-28T03:33:10.419Z,997.43
2017-04-28T03:34:10.450Z,997.4
2017-04-28T03:35:10.484Z,997.38
2017-04-28T03:36:10.516Z,997.38
2017-04-28T03:37:10.548Z,997.35
2017-04-28T03:38:10.581Z,997.35
2017-04-28T03:39:10.613Z,997.36
2017-04-28T03:40:10.646Z,997.38
2017-04-28T03:41:10.679Z,997.35
2017-04-28T03:42:10.712Z,997.34
2017-04-28T03:43:10.749Z,997.33
2017-04-28T03:44:10.777Z,997.3
2017-04-28T03:45:10.809Z,997.32
2017-04-28T03:46:10.843Z,997.35
2017-04-28T03:47:10.875Z,997.35
2017-04-28T03:48:10.907Z,997.4
2017-04-28T03:49:10.940Z,997.38
2017-04-28T03:50:10.973Z,997.4
2017-04-28T03:51:11.005Z,997.38
2017-04-28T03:52:11.037Z,997.37
2017-04-28T03:53:11.071Z,997.44
2017-04-28T03:54:11.103Z,997.38
2017-04-28T03:55:11.135Z,997.44
2017-04-28T03:56:11.167Z,997.42
2017-04-28T03:57:11.201Z,997.46
2017-04-28T03:58:11.237Z,997.45
2017-04-28T03:59:11.268Z,997.44
2017-04-28T04:00:11.298Z,997.45
2017-04-28T04:01:11.330Z,997.4
2017-04-28T04:02:11.362Z,997.4
2017-04-28T04:03:11.396Z,997.39
2017-04-28T04:04:11.428Z,997.39
2017-04-28T04:05:11.462Z,997.41
2017-04-28T04:06:11.493Z,997.4
2017-04-28T04:07:11.526Z,997.45
2017-04-28T04:08:11.559Z,997.46
2017-04-28T04:09:11.592Z,997.47
2017-04-28T04:10:11.623Z,997.49
2017-04-28T04:11:11.655Z,997.48
2017-04-28T04:12:11.689Z,997.44
2017-04-28T04:13:11.721Z,997.48
2017-04-28T04:14:11.753Z,997.47
2017-04-28T04:15:11.788Z,997.49
2017-04-28T04:16:11.821Z,997.5
2017-04-28T04:17:11.852Z,997.51
2017-04-28T04:18:11.884Z,997.5
2017-04-28T04:19:11.919Z,997.51
2017-04-28T04:20:11.950Z,997.5
2017-04-28T04:21:11.982Z,997.51
2017-04-28T04:22:12.015Z,997.48
2017-04-28T04:23:12.048Z,997.48
2017-04-28T04:24:12.079Z,997.47
2017-04-28T04:25:12.113Z,997.48
2017-04-28T04:26:12.147Z,997.53
2017-04-28T04:27:12.180Z,997.53
2017-04-28T04:28:12.212Z,997.53
2017-04-28T04:29:12.246Z,997.57
2017-04-28T04:30:12.278Z,997.54
2017-04-28T04:31:12.310Z,997.56
2017-04-28T04:32:12.343Z,997.59
2017-04-28T04:33:12.376Z,997.6
2017-04-28T04:34:12.409Z,997.62
2017-04-28T04:35:12.443Z,997.59
2017-04-28T04:36:12.474Z,997.58
2017-04-28T04:37:12.508Z,997.58
2017-04-28T04:38:12.542Z,997.58
2017-04-28T04:39:12.574Z,997.59
2017-04-28T04:40:12.607Z,997.57
2017-04-28T04:41:12.751Z,997.6
2017-04-28T04:42:12.674Z,997.61
2017-04-28T04:43:12.708Z,997.54
2017-04-28T04:44:12.742Z,997.54
2017-04-28T04:45:12.775Z,997.54
2017-04-28T04:46:12.809Z,997.54
2017-04-28T04:47:12.841Z,997.54
2017-04-28T04:48:12.876Z,997.56
2017-04-28T04:49:12.911Z,997.55
2017-04-28T04:50:12.945Z,997.59
2017-04-28T04:51:12.977Z,997.55
2017-04-28T04:52:13.011Z,997.58
2017-04-28T04:53:13.045Z,997.57
2017-04-28T04:54:13.081Z,997.59
2017-04-28T04:55:13.113Z,997.59
2017-04-28T04:56:13.148Z,997.61
2017-04-28T04:57:13.180Z,997.56
2017-04-28T04:58:13.216Z,997.59
2017-04-28T04:59:13.250Z,997.64
2017-04-28T05:00:13.284Z,997.66
2017-04-28T05:01:13.317Z,997.63
2017-04-28T05:02:13.352Z,997.65
2017-04-28T05:03:13.388Z,997.67
2017-04-28T05:04:13.419Z,997.66
2017-04-28T05:05:13.454Z,997.64
2017-04-28T05:06:13.488Z,997.62
2017-04-28T05:07:13.524Z,997.62
2017-04-28T05:08:13.556Z,997.62
2017-04-28T05:09:13.592Z,997.68
2017-04-28T05:10:13.627Z,997.64
2017-04-28T05:11:13.660Z,997.69
2017-04-28T05:12:13.693Z,997.66
2017-04-28T05:13:13.730Z,997.63
2017-04-28T05:14:13.763Z,997.61
2017-04-28T05:15:13.796Z,997.6
2017-04-28T05:16:13.831Z,997.59
2017-04-28T05:17:13.869Z,997.59
2017-04-28T05:18:13.901Z,997.64
2017-04-28T05:19:13.934Z,997.6
2017-04-28T05:20:13.968Z,997.6
2017-04-28T05:21:14.003Z,997.6
2017-04-28T05:22:14.037Z,997.6
2017-04-28T05:23:14.072Z,997.58
2017-04-28T05:24:14.106Z,997.63
2017-04-28T05:25:14.139Z,997.61
2017-04-28T05:26:14.174Z,997.64
2017-04-28T05:27:14.208Z,997.68
2017-04-28T05:28:14.243Z,997.67
2017-04-28T05:29:14.278Z,997.69
2017-04-28T05:30:14.312Z,997.67
2017-04-28T05:31:14.346Z,997.69
2017-04-28T05:32:14.381Z,997.7
2017-04-28T05:33:14.417Z,997.71
2017-04-28T05:34:14.450Z,997.7
2017-04-28T05:35:14.483Z,997.76
2017-04-28T05:36:14.519Z,997.76
2017-04-28T05:37:14.555Z,997.77
2017-04-28T05:38:14.587Z,997.79
2017-04-28T05:39:14.622Z,997.78
2017-04-28T05:40:14.657Z,997.77
2017-04-28T05:41:14.691Z,997.81
2017-04-28T05:42:14.725Z,997.75
2017-04-28T05:43:14.760Z,997.78
2017-04-28T05:44:14.795Z,997.76
2017-04-28T05:45:14.830Z,997.77
2017-04-28T05:46:14.864Z,997.8
2017-04-28T05:47:14.900Z,997.83
2017-04-28T05:48:14.933Z,997.83
2017-04-28T05:49:14.968Z,997.8
2017-04-28T05:50:15.002Z,997.77
2017-04-28T05:51:15.039Z,997.81
2017-04-28T05:52:15.073Z,997.8
2017-04-28T05:53:15.107Z,997.75
2017-04-28T05:54:15.142Z,997.75
2017-04-28T05:55:15.179Z,997.77
2017-04-28T05:56:15.211Z,997.78
2017-04-28T05:57:15.246Z,997.77
2017-04-28T05:58:15.281Z,997.82
2017-04-28T05:59:15.315Z,997.82
2017-04-28T06:00:15.351Z,997.81
2017-04-28T06:01:15.385Z,997.82
2017-04-28T06:02:15.421Z,997.81
2017-04-28T06:03:15.455Z,997.82
2017-04-28T06:04:15.490Z,997.81
2017-04-28T06:05:15.525Z,997.84
2017-04-28T06:06:15.560Z,997.83
2017-04-28T06:07:15.595Z,997.83
2017-04-28T06:08:15.629Z,997.84
2017-04-28T06:09:15.665Z,997.85
2017-04-28T06:10:15.700Z,997.79
2017-04-28T06:11:15.735Z,997.79
2017-04-28T06:12:15.769Z,997.77
2017-04-28T06:13:15.806Z,997.76
2017-04-28T06:14:15.840Z,997.77
2017-04-28T06:15:15.875Z,997.74
2017-04-28T06:16:15.914Z,997.76
2017-04-28T06:17:15.945Z,997.73
2017-04-28T06:18:15.983Z,997.72
2017-04-28T06:19:16.015Z,997.71
2017-04-28T06:20:16.071Z,997.71
2017-04-28T06:21:16.154Z,997.71
2017-04-28T06:22:16.121Z,997.68
2017-04-28T06:23:16.155Z,997.7
2017-04-28T06:24:16.191Z,997.66
2017-04-28T06:25:16.225Z,997.68
2017-04-28T06:26:16.264Z,997.67
2017-04-28T06:27:16.301Z,997.71
2017-04-28T06:28:16.332Z,997.69
2017-04-28T06:29:16.367Z,997.69
2017-04-28T06:30:16.403Z,997.68
2017-04-28T06:31:16.438Z,997.65
2017-04-28T06:32:16.474Z,997.68
2017-04-28T06:33:16.509Z,997.71
2017-04-28T06:34:16.544Z,997.68
2017-04-28T06:35:16.580Z,997.67
2017-04-28T06:36:16.617Z,997.66
2017-04-28T06:37:16.651Z,997.65
2017-04-28T06:38:16.686Z,997.7
2017-04-28T06:39:16.720Z,997.67
2017-04-28T06:40:16.755Z,997.69
2017-04-28T06:41:16.791Z,997.74
2017-04-28T06:42:16.827Z,997.72
2017-04-28T06:43:16.863Z,997.73
2017-04-28T06:44:16.898Z,997.74
2017-04-28T06:45:16.935Z,997.76
2017-04-28T06:46:16.969Z,997.77
2017-04-28T06:47:17.062Z,997.74
2017-04-28T06:48:17.040Z,997.75
2017-04-28T06:49:17.075Z,997.75
2017-04-28T06:50:17.111Z,997.75
2017-04-28T06:51:17.170Z,997.73
2017-04-28T06:52:17.181Z,997.76
2017-04-28T06:53:17.217Z,997.77
2017-04-28T06:54:17.251Z,997.78
2017-04-28T06:55:17.288Z,997.75
2017-04-28T06:56:17.323Z,997.77
2017-04-28T06:57:17.358Z,997.77
2017-04-28T06:58:17.395Z,997.74
2017-04-28T06:59:17.429Z,997.79
2017-04-28T07:00:17.465Z,997.75
2017-04-28T07:01:17.499Z,997.74
2017-04-28T07:02:17.543Z,997.75
2017-04-28T07:03:17.570Z,997.72
2017-04-28T07:04:17.607Z,997.74
2017-04-28T07:05:17.642Z,997.73
2017-04-28T07:06:17.678Z,997.72
2017-04-28T07:07:17.713Z,997.73
2017-04-28T07:08:17.749Z,997.74
2017-04-28T07:09:17.785Z,997.73
2017-04-28T07:10:17.819Z,997.71
2017-04-28T07:11:17.858Z,997.76
2017-04-28T07:12:17.894Z,997.76
2017-04-28T07:13:17.928Z,997.76
2017-04-28T07:14:17.963Z,997.78
2017-04-28T07:15:18.009Z,997.75
2017-04-28T07:16:18.035Z,997.76
2017-04-28T07:17:18.071Z,997.74
2017-04-28T07:18:18.117Z,997.77
2017-04-28T07:19:18.143Z,997.81
2017-04-28T07:20:18.182Z,997.86
2017-04-28T07:21:18.219Z,997.89
2017-04-28T07:22:18.250Z,997.93
2017-04-28T07:23:18.286Z,997.99
2017-04-28T07:24:18.321Z,997.98
2017-04-28T07:25:18.358Z,997.98
2017-04-28T07:26:18.394Z,998
2017-04-28T07:27:18.430Z,997.99
2017-04-28T07:28:18.466Z,997.98
2017-04-28T07:29:18.502Z,997.95
2017-04-28T07:30:18.538Z,997.95
2017-04-28T07:31:18.573Z,997.96
2017-04-28T07:32:18.609Z,997.93
2017-04-28T07:33:18.828Z,997.92
2017-04-28T07:34:18.681Z,997.9
2017-04-28T07:35:18.717Z,997.89
2017-04-28T07:36:18.753Z,997.86
2017-04-28T07:37:18.789Z,997.85
2017-04-28T07:38:18.824Z,997.8
2017-04-28T07:39:18.861Z,997.75
2017-04-28T07:40:18.897Z,997.81
2017-04-28T07:41:18.934Z,997.77
2017-04-28T07:42:18.990Z,997.75
2017-04-28T07:43:19.005Z,997.76
2017-04-28T07:44:19.041Z,997.79
2017-04-28T07:45:19.074Z,997.79
2017-04-28T07:46:19.112Z,997.78
2017-04-28T07:47:19.148Z,997.79
2017-04-28T07:48:19.185Z,997.78
2017-04-28T07:49:19.221Z,997.76
2017-04-28T07:50:19.256Z,997.73
2017-04-28T07:51:19.292Z,997.72
2017-04-28T07:52:19.329Z,997.7
2017-04-28T07:53:19.364Z,997.72
2017-04-28T07:54:19.400Z,997.74
2017-04-28T07:55:19.437Z,997.75
2017-04-28T07:56:19.472Z,997.71
2017-04-28T07:57:19.510Z,997.71
2017-04-28T07:58:19.544Z,997.7
2017-04-28T07:59:19.582Z,997.68
2017-04-28T08:00:19.617Z,997.68
2017-04-28T08:01:19.653Z,997.64
2017-04-28T08:02:19.690Z,997.59
2017-04-28T08:03:19.727Z,997.63
2017-04-28T08:04:19.764Z,997.54
2017-04-28T08:05:19.802Z,997.56
2017-04-28T08:06:19.837Z,997.56
2017-04-28T08:07:19.872Z,997.55
2017-04-28T08:08:20.117Z,997.52
2017-04-28T08:09:19.945Z,997.51
2017-04-28T08:10:19.982Z,997.49
2017-04-28T08:11:20.018Z,997.48
2017-04-28T08:12:20.055Z,997.48
2017-04-28T08:13:20.090Z,997.46
2017-04-28T08:14:20.134Z,997.46
2017-04-28T08:15:20.163Z,997.47
2017-04-28T08:16:20.200Z,997.46
2017-04-28T08:17:20.261Z,997.49
2017-04-28T08:18:20.273Z,997.47
2017-04-28T08:19:20.312Z,997.47
2017-04-28T08:20:20.346Z,997.51
2017-04-28T08:21:20.384Z,997.48
2017-04-28T08:22:20.419Z,997.52
2017-04-28T08:23:20.456Z,997.52
2017-04-28T08:24:20.493Z,997.56
2017-04-28T08:25:20.530Z,997.57
2017-04-28T08:26:20.566Z,997.6
2017-04-28T08:27:20.606Z,997.63
2017-04-28T08:28:20.640Z,997.62
2017-04-28T08:29:20.676Z,997.67
2017-04-28T08:30:20.719Z,997.68
2017-04-28T08:31:20.750Z,997.67
2017-04-28T08:32:20.787Z,997.67
2017-04-28T08:33:20.899Z,997.73
2017-04-28T08:34:20.861Z,997.72
2017-04-28T08:35:20.898Z,997.76
2017-04-28T08:36:20.933Z,997.75
2017-04-28T08:37:20.971Z,997.74
2017-04-28T08:38:21.008Z,997.76
2017-04-28T08:39:21.045Z,997.77
2017-04-28T08:40:21.082Z,997.72
2017-04-28T08:41:21.119Z,997.78
2017-04-28T08:42:21.156Z,997.76
2017-04-28T08:43:21.194Z,997.79
2017-04-28T08:44:21.230Z,997.8
2017-04-28T08:45:21.267Z,997.76
2017-04-28T08:46:21.304Z,997.81
2017-04-28T08:47:21.342Z,997.8
2017-04-28T08:48:21.378Z,997.84
2017-04-28T08:49:21.414Z,997.89
2017-04-28T08:50:21.452Z,997.89
2017-04-28T08:51:21.488Z,997.87
2017-04-28T08:52:21.526Z,997.9
2017-04-28T08:53:21.562Z,997.89
2017-04-28T08:54:21.599Z,997.94
2017-04-28T08:55:21.636Z,997.91
2017-04-28T08:56:21.673Z,997.91
2017-04-28T08:57:21.710Z,997.96
2017-04-28T08:58:21.746Z,997.94
2017-04-28T08:59:21.784Z,997.91
2017-04-28T09:00:21.821Z,997.96
2017-04-28T09:01:21.858Z,997.94
2017-04-28T09:02:21.894Z,997.93
2017-04-28T09:03:21.932Z,997.95
2017-04-28T09:04:21.968Z,998.01
2017-04-28T09:05:22.006Z,998
2017-04-28T09:06:22.042Z,998
2017-04-28T09:07:22.079Z,998.03
2017-04-28T09:08:22.115Z,998.04
2017-04-28T09:09:22.153Z,998.06
2017-04-28T09:10:22.190Z,998.07
2017-04-28T09:11:22.227Z,998.04
2017-04-28T09:12:22.266Z,998.04
2017-04-28T09:13:22.301Z,998.03
2017-04-28T09:14:22.338Z,997.99
2017-04-28T09:15:22.376Z,998.01
2017-04-28T09:16:22.412Z,998.02
2017-04-28T09:17:22.449Z,998.03
2017-04-28T09:18:22.486Z,998.01
2017-04-28T09:19:22.524Z,998.05
2017-04-28T09:20:22.558Z,998.06
2017-04-28T09:21:22.597Z,998.06
2017-04-28T09:22:22.635Z,998.07
2017-04-28T09:23:22.671Z,998.1
2017-04-28T09:24:22.707Z,998.07
2017-04-28T09:25:22.746Z,998.06
2017-04-28T09:26:22.785Z,998
2017-04-28T09:27:22.821Z,998
2017-04-28T09:28:22.858Z,997.97
2017-04-28T09:29:22.894Z,997.97
2017-04-28T09:30:22.930Z,997.96
2017-04-28T09:31:22.969Z,997.92
2017-04-28T09:32:23.005Z,997.89
2017-04-28T09:33:23.042Z,997.85
2017-04-28T09:34:23.079Z,997.85
2017-04-28T09:35:23.117Z,997.87
2017-04-28T09:36:23.153Z,997.82
2017-04-28T09:37:23.192Z,997.84
2017-04-28T09:38:23.229Z,997.81
2017-04-28T09:39:23.266Z,997.83
2017-04-28T09:40:23.304Z,997.78
2017-04-28T09:41:23.369Z,997.79
2017-04-28T09:42:23.378Z,997.76
2017-04-28T09:43:23.417Z,997.75
2017-04-28T09:44:23.452Z,997.78
2017-04-28T09:45:23.490Z,997.7
2017-04-28T09:46:23.529Z,997.71
2017-04-28T09:47:23.566Z,997.7
2017-04-28T09:48:23.603Z,997.66
2017-04-28T09:49:23.642Z,997.64
2017-04-28T09:50:23.678Z,997.65
2017-04-28T09:51:23.722Z,997.64
2017-04-28T09:52:23.754Z,997.64
2017-04-28T09:53:23.790Z,997.6
2017-04-28T09:54:23.829Z,997.59
2017-04-28T09:55:23.867Z,997.61
2017-04-28T09:56:23.904Z,997.61
2017-04-28T09:57:23.942Z,997.59
2017-04-28T09:58:23.980Z,997.61
2017-04-28T09:59:24.017Z,997.66
2017-04-28T10:00:24.057Z,997.63
2017-04-28T10:01:24.095Z,997.61
2017-04-28T10:02:24.152Z,997.63
2017-04-28T10:03:24.173Z,997.6
2017-04-28T10:04:24.211Z,997.61
2017-04-28T10:05:24.250Z,997.59
2017-04-28T10:06:24.289Z,997.64
2017-04-28T10:07:24.328Z,997.64
2017-04-28T10:08:24.401Z,997.64
2017-04-28T10:09:24.429Z,997.64
2017-04-28T10:10:24.445Z,997.58
2017-04-28T10:11:24.483Z,997.54
2017-04-28T10:12:24.522Z,997.52
2017-04-28T10:13:24.561Z,997.49
2017-04-28T10:14:24.602Z,997.51
2017-04-28T10:15:24.640Z,997.45
2017-04-28T10:16:24.679Z,997.44
2017-04-28T10:17:24.721Z,997.46
2017-04-28T10:18:24.760Z,997.31
2017-04-28T10:19:24.799Z,997.29
2017-04-28T10:20:24.840Z,997.29
2017-04-28T10:21:24.878Z,997.27
2017-04-28T10:22:24.920Z,997.25
2017-04-28T10:23:24.961Z,997.25
2017-04-28T10:24:25.000Z,997.23
2017-04-28T10:25:25.039Z,997.2
2017-04-28T10:26:25.079Z,997.18
2017-04-28T10:27:25.119Z,997.11
2017-04-28T10:28:25.162Z,997.09
2017-04-28T10:29:25.201Z,997.14
2017-04-28T10:30:25.241Z,997.13
2017-04-28T10:31:25.281Z,997.11
2017-04-28T10:32:25.323Z,997.09
2017-04-28T10:33:25.363Z,997.12
2017-04-28T10:34:25.407Z,997.06
2017-04-28T10:35:25.446Z,996.96
2017-04-28T10:36:25.488Z,996.97
2017-04-28T10:37:25.531Z,996.91
2017-04-28T10:38:25.574Z,996.88
2017-04-28T10:39:25.617Z,996.86
2017-04-28T10:40:25.658Z,996.89
2017-04-28T10:41:25.700Z,996.87
2017-04-28T10:42:25.744Z,996.86
2017-04-28T10:43:25.787Z,996.83
2017-04-28T10:44:25.831Z,996.81
2017-04-28T10:45:25.879Z,996.82
2017-04-28T10:46:25.918Z,996.79
2017-04-28T10:47:25.962Z,996.78
2017-04-28T10:48:26.005Z,996.79
2017-04-28T10:49:26.065Z,996.72
2017-04-28T10:50:26.094Z,996.67
2017-04-28T10:51:26.138Z,996.74
2017-04-28T10:52:26.180Z,996.8
2017-04-28T10:53:26.225Z,996.78
2017-04-28T10:54:26.271Z,996.82
2017-04-28T10:55:26.311Z,996.95
2017-04-28T10:56:26.356Z,997.01
2017-04-28T10:57:26.400Z,997.07
2017-04-28T10:58:26.442Z,997.11
2017-04-28T10:59:26.486Z,997.12
2017-04-28T11:00:26.528Z,997.15
2017-04-28T11:01:26.572Z,997.15
2017-04-28T11:02:26.615Z,997.09
2017-04-28T11:03:26.660Z,997.15
2017-04-28T11:04:26.700Z,997.17
2017-04-28T11:05:26.743Z,997.14
2017-04-28T11:06:26.785Z,997.16
2017-04-28T11:07:26.827Z,997.2
2017-04-28T11:08:26.867Z,997.22
2017-04-28T11:09:26.910Z,997.16
2017-04-28T11:10:26.950Z,997.2
2017-04-28T11:11:26.993Z,997.14
2017-04-28T11:12:27.035Z,997.13
2017-04-28T11:13:27.076Z,997.1
2017-04-28T11:14:27.118Z,997.09
2017-04-28T11:15:27.159Z,997.09
2017-04-28T11:16:27.202Z,997.1
2017-04-28T11:17:27.243Z,997.08
2017-04-28T11:18:27.284Z,997.06
2017-04-28T11:19:27.325Z,997.11
2017-04-28T11:20:27.393Z,997.07
2017-04-28T11:21:27.406Z,997.1
2017-04-28T11:22:27.447Z,997.13
2017-04-28T11:23:27.489Z,997.16
2017-04-28T11:24:27.529Z,997.15
2017-04-28T11:25:27.569Z,997.19
2017-04-28T11:26:27.611Z,997.16
2017-04-28T11:27:27.651Z,997.24
2017-04-28T11:28:27.696Z,997.24
2017-04-28T11:29:27.732Z,997.18
2017-04-28T11:30:27.773Z,997.22
2017-04-28T11:31:27.815Z,997.2
2017-04-28T11:32:27.853Z,997.26
2017-04-28T11:33:27.895Z,997.24
2017-04-28T11:34:27.936Z,997.3
2017-04-28T11:35:27.977Z,997.32
2017-04-28T11:36:28.016Z,997.38
2017-04-28T11:37:28.057Z,997.38
2017-04-28T11:38:28.098Z,997.35
2017-04-28T11:39:28.137Z,997.38
2017-04-28T11:40:28.178Z,997.39
2017-04-28T11:41:28.218Z,997.34
2017-04-28T11:42:28.259Z,997.38
2017-04-28T11:43:28.298Z,997.35
2017-04-28T11:44:28.339Z,997.36
2017-04-28T11:45:28.381Z,997.41
2017-04-28T11:46:28.419Z,997.39
2017-04-28T11:47:28.460Z,997.34
2017-04-28T11:48:28.499Z,997.32
2017-04-28T11:49:28.541Z,997.35
2017-04-28T11:50:28.579Z,997.34
2017-04-28T11:51:28.620Z,997.36
2017-04-28T11:52:28.661Z,997.4
2017-04-28T11:53:28.701Z,997.34
2017-04-28T11:54:28.740Z,997.39
2017-04-28T11:55:28.780Z,997.37
2017-04-28T11:56:28.821Z,997.35
2017-04-28T11:57:28.864Z,997.37
2017-04-28T11:58:28.902Z,997.34
2017-04-28T11:59:28.941Z,997.32
2017-04-28T12:00:28.993Z,997.37
2017-04-28T12:01:29.020Z,997.31
2017-04-28T12:02:29.061Z,997.35
2017-04-28T12:03:29.101Z,997.35
2017-04-28T12:04:29.144Z,997.35
2017-04-28T12:05:29.181Z,997.39
2017-04-28T12:06:29.231Z,997.36
2017-04-28T12:07:29.261Z,997.32
2017-04-28T12:08:29.300Z,997.32
2017-04-28T12:09:29.339Z,997.34
2017-04-28T12:10:29.383Z,997.33
2017-04-28T12:11:29.421Z,997.29
2017-04-28T12:12:29.461Z,997.31
2017-04-28T12:13:29.501Z,997.28
2017-04-28T12:14:29.571Z,997.29
2017-04-28T12:15:29.582Z,997.27
2017-04-28T12:16:29.622Z,997.29
2017-04-28T12:17:29.661Z,997.29
2017-04-28T12:18:29.701Z,997.28
2017-04-28T12:19:29.740Z,997.28
2017-04-28T12:20:29.780Z,997.28
2017-04-28T12:21:29.822Z,997.26
2017-04-28T12:22:29.869Z,997.27
2017-04-28T12:23:29.899Z,997.23
2017-04-28T12:24:29.941Z,997.24
2017-04-28T12:25:29.981Z,997.22
2017-04-28T12:26:30.020Z,997.23
2017-04-28T12:27:30.061Z,997.19
2017-04-28T12:28:30.101Z,997.22
2017-04-28T12:29:30.140Z,997.22
2017-04-28T12:30:30.180Z,997.22
2017-04-28T12:31:30.222Z,997.24